sensor_id;sensor_type;location;lat;lon;timestamp;pressure;altitude;pressure_sealevel;temperature;humidity
3250;BME280;1637;42.020;23.992;2022-09-12T00:01:04;92555.28;;;16.44;100.00
3250;BME280;1637;42.020;23.992;2022-09-12T00:03:31;92554.28;;;16.50;100.00
3250;BME280;1637;42.020;23.992;2022-09-12T00:05:58;92563.19;;;16.60;100.00
3250;BME280;1637;42.020;23.992;2022-09-12T00:08:26;92558.78;;;16.75;100.00
3250;BME280;1637;42.020;23.992;2022-09-12T00:10:53;92562.38;;;16.72;100.00
3250;BME280;1637;42.020;23.992;2022-09-12T00:13:20;92545.78;;;16.61;100.00
3250;BME280;1637;42.020;23.992;2022-09-12T00:15:47;92557.41;;;16.71;100.00
3250;BME280;1637;42.020;23.992;2022-09-12T00:18:15;92564.22;;;16.63;100.00
3250;BME280;1637;42.020;23.992;2022-09-12T00:20:42;92572.03;;;16.82;100.00
3250;BME280;1637;42.020;23.992;2022-09-12T00:23:09;92570.47;;;16.41;100.00
3250;BME280;1637;42.020;23.992;2022-09-12T00:25:42;92600.72;;;16.80;100.00
3250;BME280;1637;42.020;23.992;2022-09-12T00:28:09;92566.22;;;16.62;100.00
3250;BME280;1637;42.020;23.992;2022-09-12T00:30:40;92557.69;;;16.42;100.00
3250;BME280;1637;42.020;23.992;2022-09-12T00:33:08;92555.97;;;16.57;100.00
3250;BME280;1637;42.020;23.992;2022-09-12T00:35:40;92540.22;;;16.34;100.00
3250;BME280;1637;42.020;23.992;2022-09-12T00:38:07;92535.09;;;16.27;100.00
3250;BME280;1637;42.020;23.992;2022-09-12T00:40:34;92526.38;;;16.01;100.00
3250;BME280;1637;42.020;23.992;2022-09-12T00:43:02;92534.59;;;16.19;100.00
3250;BME280;1637;42.020;23.992;2022-09-12T00:45:30;92545.28;;;16.54;100.00
3250;BME280;1637;42.020;23.992;2022-09-12T00:48:00;92546.91;;;16.51;100.00
3250;BME280;1637;42.020;23.992;2022-09-12T00:50:29;92556.66;;;16.70;100.00
3250;BME280;1637;42.020;23.992;2022-09-12T00:53:02;92560.28;;;16.76;100.00
3250;BME280;1637;42.020;23.992;2022-09-12T00:55:34;92560.72;;;16.75;100.00
3250;BME280;1637;42.020;23.992;2022-09-12T00:58:08;92570.25;;;16.58;100.00
3250;BME280;1637;42.020;23.992;2022-09-12T01:00:36;92564.97;;;16.54;100.00
3250;BME280;1637;42.020;23.992;2022-09-12T01:03:06;92563.13;;;16.51;100.00
3250;BME280;1637;42.020;23.992;2022-09-12T01:05:36;92546.28;;;16.38;100.00
3250;BME280;1637;42.020;23.992;2022-09-12T01:08:05;92547.63;;;16.42;100.00
3250;BME280;1637;42.020;23.992;2022-09-12T01:10:33;92553.88;;;16.30;100.00
3250;BME280;1637;42.020;23.992;2022-09-12T01:13:05;92560.13;;;16.18;100.00
3250;BME280;1637;42.020;23.992;2022-09-12T01:15:36;92555.16;;;16.17;100.00
3250;BME280;1637;42.020;23.992;2022-09-12T01:18:12;92553.88;;;16.30;100.00
3250;BME280;1637;42.020;23.992;2022-09-12T01:27:06;92550.72;;;16.63;100.00
3250;BME280;1637;42.020;23.992;2022-09-12T01:29:57;92549.53;;;16.64;100.00
3250;BME280;1637;42.020;23.992;2022-09-12T01:32:38;92548.34;;;16.34;100.00
3250;BME280;1637;42.020;23.992;2022-09-12T01:35:14;92552.25;;;16.33;100.00
3250;BME280;1637;42.020;23.992;2022-09-12T01:37:52;92548.25;;;15.94;100.00
3250;BME280;1637;42.020;23.992;2022-09-12T01:40:23;92540.28;;;15.90;100.00
3250;BME280;1637;42.020;23.992;2022-09-12T01:43:01;92544.69;;;15.97;100.00
3250;BME280;1637;42.020;23.992;2022-09-12T01:45:34;92557.59;;;15.80;100.00
3250;BME280;1637;42.020;23.992;2022-09-12T01:48:10;92547.59;;;15.68;100.00
3250;BME280;1637;42.020;23.992;2022-09-12T01:50:46;92549.50;;;15.45;100.00
3250;BME280;1637;42.020;23.992;2022-09-12T01:53:21;92548.91;;;15.63;100.00
3250;BME280;1637;42.020;23.992;2022-09-12T01:55:52;92538.31;;;15.91;100.00
3250;BME280;1637;42.020;23.992;2022-09-12T01:58:23;92548.72;;;15.79;100.00
3250;BME280;1637;42.020;23.992;2022-09-12T02:00:59;92531.97;;;15.85;100.00
3250;BME280;1637;42.020;23.992;2022-09-12T02:03:31;92532.41;;;15.83;100.00
3250;BME280;1637;42.020;23.992;2022-09-12T02:06:04;92547.28;;;15.66;100.00
3250;BME280;1637;42.020;23.992;2022-09-12T02:08:38;92553.75;;;15.68;100.00
3250;BME280;1637;42.020;23.992;2022-09-12T02:11:07;92560.00;;;15.78;100.00
3250;BME280;1637;42.020;23.992;2022-09-12T02:13:37;92550.44;;;15.64;100.00
3250;BME280;1637;42.020;23.992;2022-09-12T02:16:08;92546.53;;;15.65;100.00
3250;BME280;1637;42.020;23.992;2022-09-12T02:18:38;92548.59;;;15.61;100.00
3250;BME280;1637;42.020;23.992;2022-09-12T02:21:07;92544.53;;;15.44;100.00
3250;BME280;1637;42.020;23.992;2022-09-12T02:23:38;92540.31;;;15.56;100.00
3250;BME280;1637;42.020;23.992;2022-09-12T02:26:09;92514.22;;;15.40;100.00
3250;BME280;1637;42.020;23.992;2022-09-12T02:28:41;92544.31;;;15.51;100.00
3250;BME280;1637;42.020;23.992;2022-09-12T02:31:13;92543.28;;;15.36;100.00
3250;BME280;1637;42.020;23.992;2022-09-12T02:33:48;92545.22;;;15.35;100.00
3250;BME280;1637;42.020;23.992;2022-09-12T02:36:26;92549.94;;;15.44;100.00
3250;BME280;1637;42.020;23.992;2022-09-12T02:38:57;92536.28;;;15.26;100.00
3250;BME280;1637;42.020;23.992;2022-09-12T02:41:24;92549.22;;;15.31;100.00
3250;BME280;1637;42.020;23.992;2022-09-12T02:43:52;92557.31;;;15.31;100.00
3250;BME280;1637;42.020;23.992;2022-09-12T02:46:22;92545.97;;;15.36;100.00
3250;BME280;1637;42.020;23.992;2022-09-12T02:48:53;92551.81;;;15.22;100.00
3250;BME280;1637;42.020;23.992;2022-09-12T02:51:21;92541.78;;;15.35;100.00
3250;BME280;1637;42.020;23.992;2022-09-12T02:53:48;92546.03;;;15.10;100.00
3250;BME280;1637;42.020;23.992;2022-09-12T02:56:20;92552.19;;;14.98;100.00
3250;BME280;1637;42.020;23.992;2022-09-12T02:58:49;92559.22;;;14.83;100.00
3250;BME280;1637;42.020;23.992;2022-09-12T03:01:26;92548.66;;;14.76;100.00
3250;BME280;1637;42.020;23.992;2022-09-12T03:04:25;92551.69;;;14.78;100.00
3250;BME280;1637;42.020;23.992;2022-09-12T03:07:06;92561.59;;;14.56;100.00
3250;BME280;1637;42.020;23.992;2022-09-12T03:09:41;92559.44;;;14.76;100.00
3250;BME280;1637;42.020;23.992;2022-09-12T03:12:19;92564.09;;;14.88;100.00
3250;BME280;1637;42.020;23.992;2022-09-12T03:15:02;92557.50;;;14.89;100.00
3250;BME280;1637;42.020;23.992;2022-09-12T03:17:41;92569.25;;;14.95;100.00
3250;BME280;1637;42.020;23.992;2022-09-12T03:20:14;92573.03;;;14.60;100.00
3250;BME280;1637;42.020;23.992;2022-09-12T03:22:51;92565.06;;;14.69;100.00
3250;BME280;1637;42.020;23.992;2022-09-12T03:25:21;92534.31;;;14.41;100.00
3250;BME280;1637;42.020;23.992;2022-09-12T03:27:55;92572.94;;;14.63;100.00
3250;BME280;1637;42.020;23.992;2022-09-12T03:30:24;92588.53;;;14.43;100.00
3250;BME280;1637;42.020;23.992;2022-09-12T03:32:53;92587.84;;;14.39;100.00
3250;BME280;1637;42.020;23.992;2022-09-12T03:35:23;92579.63;;;14.17;100.00
3250;BME280;1637;42.020;23.992;2022-09-12T03:37:51;92571.63;;;14.01;100.00
3250;BME280;1637;42.020;23.992;2022-09-12T03:40:18;92575.94;;;13.98;100.00
3250;BME280;1637;42.020;23.992;2022-09-12T03:42:45;92578.44;;;14.18;100.00
3250;BME280;1637;42.020;23.992;2022-09-12T03:45:12;92582.41;;;14.01;100.00
3250;BME280;1637;42.020;23.992;2022-09-12T03:47:41;92568.00;;;13.79;100.00
3250;BME280;1637;42.020;23.992;2022-09-12T03:50:08;92572.44;;;13.56;100.00
3250;BME280;1637;42.020;23.992;2022-09-12T03:52:36;92571.59;;;13.59;100.00
3250;BME280;1637;42.020;23.992;2022-09-12T03:55:03;92568.91;;;13.59;100.00
3250;BME280;1637;42.020;23.992;2022-09-12T03:57:30;92568.66;;;13.54;100.00
3250;BME280;1637;42.020;23.992;2022-09-12T03:59:57;92568.91;;;13.59;100.00
3250;BME280;1637;42.020;23.992;2022-09-12T04:02:24;92570.38;;;13.76;100.00
3250;BME280;1637;42.020;23.992;2022-09-12T04:04:51;92573.16;;;13.73;100.00
3250;BME280;1637;42.020;23.992;2022-09-12T04:07:17;92570.09;;;13.87;100.00
3250;BME280;1637;42.020;23.992;2022-09-12T04:09:46;92573.88;;;13.90;100.00
3250;BME280;1637;42.020;23.992;2022-09-12T04:12:12;92582.72;;;14.03;100.00
3250;BME280;1637;42.020;23.992;2022-09-12T04:14:39;92575.97;;;14.11;100.00
3250;BME280;1637;42.020;23.992;2022-09-12T04:17:06;92586.19;;;14.45;100.00
3250;BME280;1637;42.020;23.992;2022-09-12T04:19:33;92599.03;;;14.54;100.00
3250;BME280;1637;42.020;23.992;2022-09-12T04:22:00;92596.19;;;15.21;100.00
3250;BME280;1637;42.020;23.992;2022-09-12T04:24:26;92598.94;;;15.55;99.89
3250;BME280;1637;42.020;23.992;2022-09-12T04:26:55;92598.59;;;15.53;95.78
3250;BME280;1637;42.020;23.992;2022-09-12T04:29:21;92606.22;;;16.02;94.80
3250;BME280;1637;42.020;23.992;2022-09-12T04:31:48;92612.13;;;16.31;91.58
3250;BME280;1637;42.020;23.992;2022-09-12T04:34:15;92606.16;;;15.93;94.18
3250;BME280;1637;42.020;23.992;2022-09-12T04:36:42;92608.13;;;15.58;93.98
3250;BME280;1637;42.020;23.992;2022-09-12T04:39:09;92607.41;;;15.32;95.79
3250;BME280;1637;42.020;23.992;2022-09-12T04:41:38;92607.97;;;15.01;100.00
3250;BME280;1637;42.020;23.992;2022-09-12T04:44:09;92604.19;;;15.11;99.29
3250;BME280;1637;42.020;23.992;2022-09-12T04:46:37;92611.09;;;15.72;96.25
3250;BME280;1637;42.020;23.992;2022-09-12T04:49:05;92610.94;;;16.85;90.70
3250;BME280;1637;42.020;23.992;2022-09-12T04:51:33;92615.75;;;16.81;87.59
3250;BME280;1637;42.020;23.992;2022-09-12T04:54:03;92607.84;;;15.77;94.07
3250;BME280;1637;42.020;23.992;2022-09-12T04:56:30;92621.19;;;16.15;94.84
3250;BME280;1637;42.020;23.992;2022-09-12T04:59:00;92628.53;;;16.59;89.83
3250;BME280;1637;42.020;23.992;2022-09-12T05:01:28;92619.47;;;15.40;94.80
3250;BME280;1637;42.020;23.992;2022-09-12T05:03:56;92622.22;;;14.89;100.00
3250;BME280;1637;42.020;23.992;2022-09-12T05:06:26;92631.16;;;14.99;100.00
3250;BME280;1637;42.020;23.992;2022-09-12T05:08:53;92639.19;;;15.62;94.81
3250;BME280;1637;42.020;23.992;2022-09-12T05:11:23;92643.75;;;16.43;90.34
3250;BME280;1637;42.020;23.992;2022-09-12T05:13:50;92635.03;;;16.39;89.71
3250;BME280;1637;42.020;23.992;2022-09-12T05:16:18;92644.69;;;16.28;88.32
3250;BME280;1637;42.020;23.992;2022-09-12T05:18:47;92643.13;;;15.83;89.43
3250;BME280;1637;42.020;23.992;2022-09-12T05:21:16;92526.78;;;14.61;93.55
3250;BME280;1637;42.020;23.992;2022-09-12T05:23:43;92644.38;;;15.69;95.86
3250;BME280;1637;42.020;23.992;2022-09-12T05:26:13;92639.53;;;15.99;92.16
3250;BME280;1637;42.020;23.992;2022-09-12T05:28:41;92644.19;;;17.66;83.77
3250;BME280;1637;42.020;23.992;2022-09-12T05:31:10;92640.25;;;17.17;82.27
3250;BME280;1637;42.020;23.992;2022-09-12T05:33:40;92632.44;;;17.29;84.97
3250;BME280;1637;42.020;23.992;2022-09-12T05:36:10;92637.25;;;17.65;79.96
3250;BME280;1637;42.020;23.992;2022-09-12T05:38:37;92641.31;;;18.70;78.08
3250;BME280;1637;42.020;23.992;2022-09-12T05:41:06;92641.63;;;18.44;77.98
3250;BME280;1637;42.020;23.992;2022-09-12T05:43:33;92640.41;;;19.57;74.56
3250;BME280;1637;42.020;23.992;2022-09-12T05:46:00;92647.63;;;20.32;71.58
3250;BME280;1637;42.020;23.992;2022-09-12T05:48:28;92655.88;;;21.35;69.05
3250;BME280;1637;42.020;23.992;2022-09-12T05:50:59;92647.22;;;21.36;66.67
3250;BME280;1637;42.020;23.992;2022-09-12T05:53:28;92647.91;;;22.01;65.72
3250;BME280;1637;42.020;23.992;2022-09-12T05:56:04;92655.66;;;23.58;59.88
3250;BME280;1637;42.020;23.992;2022-09-12T05:58:31;92653.78;;;23.75;59.08
3250;BME280;1637;42.020;23.992;2022-09-12T06:01:03;92649.16;;;22.46;62.43
3250;BME280;1637;42.020;23.992;2022-09-12T06:03:31;92643.91;;;22.89;62.69
3250;BME280;1637;42.020;23.992;2022-09-12T06:06:01;92648.81;;;23.11;61.89
3250;BME280;1637;42.020;23.992;2022-09-12T06:08:30;92653.03;;;24.23;58.24
3250;BME280;1637;42.020;23.992;2022-09-12T06:10:58;92650.88;;;23.84;59.32
3250;BME280;1637;42.020;23.992;2022-09-12T06:13:25;92656.22;;;24.70;56.01
3250;BME280;1637;42.020;23.992;2022-09-12T06:15:52;92647.84;;;23.14;60.33
3250;BME280;1637;42.020;23.992;2022-09-12T06:18:19;92649.44;;;23.57;58.67
3250;BME280;1637;42.020;23.992;2022-09-12T06:20:46;92658.84;;;24.30;58.54
3250;BME280;1637;42.020;23.992;2022-09-12T06:23:13;92650.31;;;25.60;55.97
3250;BME280;1637;42.020;23.992;2022-09-12T06:25:46;92650.09;;;25.14;55.48
3250;BME280;1637;42.020;23.992;2022-09-12T06:28:14;92647.38;;;23.15;60.73
3250;BME280;1637;42.020;23.992;2022-09-12T06:30:40;92639.53;;;20.76;68.68
3250;BME280;1637;42.020;23.992;2022-09-12T06:33:07;92636.19;;;19.56;71.32
3250;BME280;1637;42.020;23.992;2022-09-12T06:35:35;92632.09;;;18.85;74.78
3250;BME280;1637;42.020;23.992;2022-09-12T06:38:02;92622.19;;;18.64;77.69
3250;BME280;1637;42.020;23.992;2022-09-12T06:40:29;92605.81;;;17.85;81.34
3250;BME280;1637;42.020;23.992;2022-09-12T06:42:58;92632.31;;;18.18;82.52
3250;BME280;1637;42.020;23.992;2022-09-12T06:45:24;92625.22;;;18.39;82.46
3250;BME280;1637;42.020;23.992;2022-09-12T06:47:51;92618.44;;;18.43;81.82
3250;BME280;1637;42.020;23.992;2022-09-12T06:50:18;92618.16;;;18.14;81.72
3250;BME280;1637;42.020;23.992;2022-09-12T06:52:48;92610.91;;;18.38;80.54
3250;BME280;1637;42.020;23.992;2022-09-12T06:55:15;92626.72;;;18.67;80.17
3250;BME280;1637;42.020;23.992;2022-09-12T06:57:41;92628.50;;;20.41;76.42
3250;BME280;1637;42.020;23.992;2022-09-12T07:00:11;92637.63;;;23.09;60.76
3250;BME280;1637;42.020;23.992;2022-09-12T07:02:38;92640.94;;;23.18;57.16
3250;BME280;1637;42.020;23.992;2022-09-12T07:05:06;92629.84;;;22.76;60.23
3250;BME280;1637;42.020;23.992;2022-09-12T07:07:33;92650.00;;;24.69;54.89
3250;BME280;1637;42.020;23.992;2022-09-12T07:10:00;92638.44;;;23.83;53.38
3250;BME280;1637;42.020;23.992;2022-09-12T07:12:27;92633.25;;;21.84;55.07
3250;BME280;1637;42.020;23.992;2022-09-12T07:14:54;92646.84;;;21.29;57.28
3250;BME280;1637;42.020;23.992;2022-09-12T07:17:22;92631.75;;;19.92;61.07
3250;BME280;1637;42.020;23.992;2022-09-12T07:19:49;92643.13;;;19.57;61.67
3250;BME280;1637;42.020;23.992;2022-09-12T07:22:16;92640.16;;;19.37;64.27
3250;BME280;1637;42.020;23.992;2022-09-12T07:24:43;92649.50;;;19.78;61.48
3250;BME280;1637;42.020;23.992;2022-09-12T07:27:10;92643.03;;;19.42;64.06
3250;BME280;1637;42.020;23.992;2022-09-12T07:29:37;92640.59;;;19.44;61.74
3250;BME280;1637;42.020;23.992;2022-09-12T07:32:04;92644.03;;;20.64;58.87
3250;BME280;1637;42.020;23.992;2022-09-12T07:34:33;92639.75;;;22.07;56.60
3250;BME280;1637;42.020;23.992;2022-09-12T07:37:00;92641.97;;;22.23;54.61
3250;BME280;1637;42.020;23.992;2022-09-12T07:39:27;92636.34;;;21.91;53.99
3250;BME280;1637;42.020;23.992;2022-09-12T07:41:54;92633.13;;;20.79;58.49
3250;BME280;1637;42.020;23.992;2022-09-12T07:44:21;92626.25;;;19.77;60.14
3250;BME280;1637;42.020;23.992;2022-09-12T07:46:48;92632.50;;;19.92;60.50
3250;BME280;1637;42.020;23.992;2022-09-12T07:49:16;92633.31;;;21.69;55.37
3250;BME280;1637;42.020;23.992;2022-09-12T07:51:45;92639.75;;;22.27;52.70
3250;BME280;1637;42.020;23.992;2022-09-12T07:54:11;92647.63;;;24.28;49.33
3250;BME280;1637;42.020;23.992;2022-09-12T07:56:38;92644.78;;;24.12;50.46
3250;BME280;1637;42.020;23.992;2022-09-12T07:59:05;92640.72;;;23.22;50.81
3250;BME280;1637;42.020;23.992;2022-09-12T08:01:32;92647.06;;;23.76;49.23
3250;BME280;1637;42.020;23.992;2022-09-12T08:04:00;92644.88;;;23.80;49.55
3250;BME280;1637;42.020;23.992;2022-09-12T08:06:28;92642.28;;;24.67;47.56
3250;BME280;1637;42.020;23.992;2022-09-12T08:08:59;92637.03;;;24.75;47.71
3250;BME280;1637;42.020;23.992;2022-09-12T08:11:27;92625.09;;;22.96;51.16
3250;BME280;1637;42.020;23.992;2022-09-12T08:13:55;92634.03;;;24.51;49.82
3250;BME280;1637;42.020;23.992;2022-09-12T08:16:24;92636.13;;;25.17;43.75
3250;BME280;1637;42.020;23.992;2022-09-12T08:18:51;92634.88;;;25.18;44.24
3250;BME280;1637;42.020;23.992;2022-09-12T08:21:20;92623.78;;;23.86;45.96
3250;BME280;1637;42.020;23.992;2022-09-12T08:23:50;92629.47;;;23.46;49.28
3250;BME280;1637;42.020;23.992;2022-09-12T08:26:19;92629.88;;;23.70;48.15
3250;BME280;1637;42.020;23.992;2022-09-12T08:28:46;92611.84;;;23.15;51.53
3250;BME280;1637;42.020;23.992;2022-09-12T08:31:16;92590.97;;;21.18;54.38
3250;BME280;1637;42.020;23.992;2022-09-12T08:33:43;92603.88;;;22.34;52.75
3250;BME280;1637;42.020;23.992;2022-09-12T08:36:11;92605.25;;;21.13;53.71
3250;BME280;1637;42.020;23.992;2022-09-12T08:38:39;92604.84;;;21.90;53.65
3250;BME280;1637;42.020;23.992;2022-09-12T08:41:11;92614.09;;;21.78;53.92
3250;BME280;1637;42.020;23.992;2022-09-12T08:43:54;92602.88;;;21.36;53.94
3250;BME280;1637;42.020;23.992;2022-09-12T08:46:28;92599.47;;;21.96;53.56
3250;BME280;1637;42.020;23.992;2022-09-12T08:48:59;92602.34;;;23.05;50.11
3250;BME280;1637;42.020;23.992;2022-09-12T08:51:29;92596.44;;;21.94;52.16
3250;BME280;1637;42.020;23.992;2022-09-12T08:53:59;92597.25;;;21.24;53.73
3250;BME280;1637;42.020;23.992;2022-09-12T08:56:31;92586.72;;;21.17;53.69
3250;BME280;1637;42.020;23.992;2022-09-12T08:59:03;92598.84;;;21.02;54.91
3250;BME280;1637;42.020;23.992;2022-09-12T09:01:31;92592.03;;;20.77;53.67
3250;BME280;1637;42.020;23.992;2022-09-12T09:04:23;92590.22;;;21.03;55.39
3250;BME280;1637;42.020;23.992;2022-09-12T09:07:07;92588.19;;;20.69;55.68
3250;BME280;1637;42.020;23.992;2022-09-12T09:09:51;92593.25;;;20.90;56.33
3250;BME280;1637;42.020;23.992;2022-09-12T09:12:24;92595.19;;;21.05;54.39
3250;BME280;1637;42.020;23.992;2022-09-12T09:15:12;92593.56;;;20.78;55.61
3250;BME280;1637;42.020;23.992;2022-09-12T09:17:48;92594.00;;;20.91;55.50
3250;BME280;1637;42.020;23.992;2022-09-12T09:20:24;92570.72;;;20.46;55.84
3250;BME280;1637;42.020;23.992;2022-09-12T09:22:56;92591.84;;;22.46;50.40
3250;BME280;1637;42.020;23.992;2022-09-12T09:25:36;92592.22;;;23.17;49.36
3250;BME280;1637;42.020;23.992;2022-09-12T09:28:06;92595.81;;;23.71;49.57
3250;BME280;1637;42.020;23.992;2022-09-12T09:30:42;92597.63;;;23.43;49.32
3250;BME280;1637;42.020;23.992;2022-09-12T09:33:17;92595.97;;;23.19;49.23
3250;BME280;1637;42.020;23.992;2022-09-12T09:35:47;92597.81;;;23.65;47.47
3250;BME280;1637;42.020;23.992;2022-09-12T09:38:23;92591.22;;;23.14;48.42
3250;BME280;1637;42.020;23.992;2022-09-12T09:41:03;92596.03;;;22.93;49.49
3250;BME280;1637;42.020;23.992;2022-09-12T09:43:32;92595.31;;;22.73;51.03
3250;BME280;1637;42.020;23.992;2022-09-12T09:46:00;92586.22;;;21.89;52.44
3250;BME280;1637;42.020;23.992;2022-09-12T09:48:30;92585.59;;;21.59;52.82
3250;BME280;1637;42.020;23.992;2022-09-12T09:50:59;92587.63;;;21.64;53.17
3250;BME280;1637;42.020;23.992;2022-09-12T09:53:34;92565.47;;;22.38;51.88
3250;BME280;1637;42.020;23.992;2022-09-12T09:56:08;92593.25;;;22.62;50.96
3250;BME280;1637;42.020;23.992;2022-09-12T09:58:38;92595.66;;;22.54;51.58
3250;BME280;1637;42.020;23.992;2022-09-12T10:01:13;92601.81;;;23.38;51.60
3250;BME280;1637;42.020;23.992;2022-09-12T10:03:47;92592.28;;;22.91;51.60
3250;BME280;1637;42.020;23.992;2022-09-12T10:06:24;92580.28;;;22.57;50.43
3250;BME280;1637;42.020;23.992;2022-09-12T10:09:03;92588.22;;;22.09;51.24
3250;BME280;1637;42.020;23.992;2022-09-12T10:11:31;92576.69;;;21.99;54.98
3250;BME280;1637;42.020;23.992;2022-09-12T10:13:59;92574.13;;;22.62;52.64
3250;BME280;1637;42.020;23.992;2022-09-12T10:16:29;92583.81;;;22.63;52.72
3250;BME280;1637;42.020;23.992;2022-09-12T10:18:57;92587.34;;;22.69;50.97
3250;BME280;1637;42.020;23.992;2022-09-12T10:21:29;92586.97;;;23.45;49.78
3250;BME280;1637;42.020;23.992;2022-09-12T10:24:00;92582.34;;;22.68;48.96
3250;BME280;1637;42.020;23.992;2022-09-12T10:26:32;92583.13;;;22.42;49.95
3250;BME280;1637;42.020;23.992;2022-09-12T10:29:04;92573.16;;;22.13;50.17
3250;BME280;1637;42.020;23.992;2022-09-12T10:31:47;92576.69;;;22.19;51.44
3250;BME280;1637;42.020;23.992;2022-09-12T10:34:25;92576.91;;;22.16;49.53
3250;BME280;1637;42.020;23.992;2022-09-12T10:36:59;92581.97;;;22.28;50.67
3250;BME280;1637;42.020;23.992;2022-09-12T10:39:27;92586.34;;;22.41;47.91
3250;BME280;1637;42.020;23.992;2022-09-12T10:41:55;92580.97;;;22.26;48.16
3250;BME280;1637;42.020;23.992;2022-09-12T10:44:25;92578.72;;;22.24;51.03
3250;BME280;1637;42.020;23.992;2022-09-12T10:46:54;92569.44;;;22.62;50.03
3250;BME280;1637;42.020;23.992;2022-09-12T10:49:27;92582.56;;;22.12;49.70
3250;BME280;1637;42.020;23.992;2022-09-12T10:51:55;92565.22;;;21.95;51.38
3250;BME280;1637;42.020;23.992;2022-09-12T10:54:25;92570.06;;;22.06;51.25
3250;BME280;1637;42.020;23.992;2022-09-12T10:57:15;92568.16;;;21.91;52.00
3250;BME280;1637;42.020;23.992;2022-09-12T11:00:02;92564.09;;;21.81;52.24
3250;BME280;1637;42.020;23.992;2022-09-12T11:02:45;92576.00;;;22.04;52.83
3250;BME280;1637;42.020;23.992;2022-09-12T11:05:19;92572.50;;;22.24;51.99
3250;BME280;1637;42.020;23.992;2022-09-12T11:07:57;92565.63;;;22.54;51.50
3250;BME280;1637;42.020;23.992;2022-09-12T11:10:33;92564.97;;;22.91;52.11
3250;BME280;1637;42.020;23.992;2022-09-12T11:13:14;92567.16;;;22.87;51.30
3250;BME280;1637;42.020;23.992;2022-09-12T11:15:54;92565.50;;;22.95;49.35
3250;BME280;1637;42.020;23.992;2022-09-12T11:18:39;92577.91;;;23.27;47.06
3250;BME280;1637;42.020;23.992;2022-09-12T11:21:18;92578.53;;;23.48;47.73
3250;BME280;1637;42.020;23.992;2022-09-12T11:24:05;92565.59;;;23.06;47.55
3250;BME280;1637;42.020;23.992;2022-09-12T11:26:44;92560.72;;;22.84;49.30
3250;BME280;1637;42.020;23.992;2022-09-12T11:29:22;92561.25;;;22.94;49.80
3250;BME280;1637;42.020;23.992;2022-09-12T11:32:03;92557.34;;;22.75;50.67
3250;BME280;1637;42.020;23.992;2022-09-12T11:34:42;92563.72;;;22.66;50.04
3250;BME280;1637;42.020;23.992;2022-09-12T11:37:38;92566.38;;;22.81;48.28
3250;BME280;1637;42.020;23.992;2022-09-12T11:40:22;92560.31;;;22.45;50.42
3250;BME280;1637;42.020;23.992;2022-09-12T11:42:55;92565.06;;;22.24;50.46
3250;BME280;1637;42.020;23.992;2022-09-12T11:45:28;92555.88;;;22.48;50.87
3250;BME280;1637;42.020;23.992;2022-09-12T11:47:58;92570.38;;;22.59;51.34
3250;BME280;1637;42.020;23.992;2022-09-12T11:50:31;92524.47;;;22.32;50.08
3250;BME280;1637;42.020;23.992;2022-09-12T11:53:04;92557.50;;;22.34;50.53
3250;BME280;1637;42.020;23.992;2022-09-12T11:55:46;92550.16;;;22.46;48.91
3250;BME280;1637;42.020;23.992;2022-09-12T11:58:17;92521.53;;;21.69;50.39
3250;BME280;1637;42.020;23.992;2022-09-12T12:00:49;92552.50;;;22.58;49.39
3250;BME280;1637;42.020;23.992;2022-09-12T12:03:24;92543.91;;;22.97;49.65
3250;BME280;1637;42.020;23.992;2022-09-12T12:06:00;92552.66;;;23.44;49.14
3250;BME280;1637;42.020;23.992;2022-09-12T12:08:30;92550.38;;;23.79;44.61
3250;BME280;1637;42.020;23.992;2022-09-12T12:10:58;92576.47;;;23.38;47.21
3250;BME280;1637;42.020;23.992;2022-09-12T12:13:30;92545.47;;;23.46;45.10
3250;BME280;1637;42.020;23.992;2022-09-12T12:16:00;92554.50;;;23.58;45.22
3250;BME280;1637;42.020;23.992;2022-09-12T12:18:29;92533.53;;;23.44;46.40
3250;BME280;1637;42.020;23.992;2022-09-12T12:21:21;92537.94;;;23.36;46.34
3250;BME280;1637;42.020;23.992;2022-09-12T12:24:10;92527.91;;;23.16;47.18
3250;BME280;1637;42.020;23.992;2022-09-12T12:26:57;92526.56;;;22.74;48.53
3250;BME280;1637;42.020;23.992;2022-09-12T12:29:43;92525.13;;;23.10;48.30
3250;BME280;1637;42.020;23.992;2022-09-12T12:32:21;92530.56;;;23.47;47.99
3250;BME280;1637;42.020;23.992;2022-09-12T12:34:49;92532.84;;;23.12;48.58
3250;BME280;1637;42.020;23.992;2022-09-12T12:37:49;92525.25;;;23.33;47.14
3250;BME280;1637;42.020;23.992;2022-09-12T12:40:26;92529.56;;;23.02;47.08
3250;BME280;1637;42.020;23.992;2022-09-12T12:46:09;92526.44;;;22.83;48.36
3250;BME280;1637;42.020;23.992;2022-09-12T12:49:09;92523.25;;;23.27;49.07
3250;BME280;1637;42.020;23.992;2022-09-12T12:51:48;92520.13;;;23.09;49.68
3250;BME280;1637;42.020;23.992;2022-09-12T12:57:39;92523.97;;;23.28;47.63
3250;BME280;1637;42.020;23.992;2022-09-12T13:00:27;92515.94;;;23.13;48.50
3250;BME280;1637;42.020;23.992;2022-09-12T13:02:58;92521.75;;;22.89;46.88
3250;BME280;1637;42.020;23.992;2022-09-12T13:05:28;92513.19;;;22.76;48.02
3250;BME280;1637;42.020;23.992;2022-09-12T13:07:58;92525.56;;;22.72;48.46
3250;BME280;1637;42.020;23.992;2022-09-12T13:10:27;92517.25;;;22.86;48.37
3250;BME280;1637;42.020;23.992;2022-09-12T13:12:59;92518.69;;;23.13;48.89
3250;BME280;1637;42.020;23.992;2022-09-12T13:15:46;92514.97;;;22.79;47.55
3250;BME280;1637;42.020;23.992;2022-09-12T13:18:17;92511.78;;;22.55;49.06
3250;BME280;1637;42.020;23.992;2022-09-12T13:20:48;92516.41;;;22.43;50.01
3250;BME280;1637;42.020;23.992;2022-09-12T13:23:21;92517.09;;;22.38;51.32
3250;BME280;1637;42.020;23.992;2022-09-12T13:25:53;92520.84;;;22.41;51.83
3250;BME280;1637;42.020;23.992;2022-09-12T13:28:22;92486.59;;;21.68;51.34
3250;BME280;1637;42.020;23.992;2022-09-12T13:30:56;92506.88;;;21.87;50.09
3250;BME280;1637;42.020;23.992;2022-09-12T13:33:30;92508.56;;;21.84;50.67
3250;BME280;1637;42.020;23.992;2022-09-12T13:39:14;92504.63;;;22.32;50.46
3250;BME280;1637;42.020;23.992;2022-09-12T13:42:02;92504.03;;;22.48;50.06
3250;BME280;1637;42.020;23.992;2022-09-12T13:44:40;92501.47;;;22.39;50.93
3250;BME280;1637;42.020;23.992;2022-09-12T13:47:09;92501.81;;;22.20;50.06